sensor_id;sensor_type;location;lat;lon;timestamp;pressure;altitude;pressure_sealevel;temperature;humidity
28628;BME280;15815;46.760;19.604;2024-02-23T00:01:54;99172.47;;;12.32;47.44
28628;BME280;15815;46.760;19.604;2024-02-23T00:04:22;99181.97;;;12.38;47.09
28628;BME280;15815;46.760;19.604;2024-02-23T00:06:48;99162.63;;;12.24;47.25
28628;BME280;15815;46.760;19.604;2024-02-23T00:09:13;99172.13;;;12.30;46.73
28628;BME280;15815;46.760;19.604;2024-02-23T00:11:40;99172.06;;;12.33;46.93
28628;BME280;15815;46.760;19.604;2024-02-23T00:14:05;99169.84;;;12.25;46.94
28628;BME280;15815;46.760;19.604;2024-02-23T00:16:31;99168.28;;;12.24;47.12
28628;BME280;15815;46.760;19.604;2024-02-23T00:18:56;99167.03;;;12.25;46.90
28628;BME280;15815;46.760;19.604;2024-02-23T00:21:22;99177.50;;;12.24;46.92
28628;BME280;15815;46.760;19.604;2024-02-23T00:24:00;99178.19;;;12.28;47.23
28628;BME280;15815;46.760;19.604;2024-02-23T00:26:26;99175.72;;;12.30;46.79
28628;BME280;15815;46.760;19.604;2024-02-23T00:28:51;99171.31;;;12.29;46.91
28628;BME280;15815;46.760;19.604;2024-02-23T00:31:17;99161.06;;;12.23;47.33
28628;BME280;15815;46.760;19.604;2024-02-23T00:33:55;99169.66;;;12.32;47.12
28628;BME280;15815;46.760;19.604;2024-02-23T00:36:21;99173.81;;;12.27;46.57
28628;BME280;15815;46.760;19.604;2024-02-23T00:38:47;99178.09;;;12.32;47.10
28628;BME280;15815;46.760;19.604;2024-02-23T00:41:12;99165.69;;;12.29;46.85
28628;BME280;15815;46.760;19.604;2024-02-23T00:43:39;99163.94;;;12.35;47.32
28628;BME280;15815;46.760;19.604;2024-02-23T00:46:04;99161.41;;;12.25;47.03
28628;BME280;15815;46.760;19.604;2024-02-23T00:48:30;99177.69;;;12.33;46.52
28628;BME280;15815;46.760;19.604;2024-02-23T00:50:56;99171.16;;;12.36;46.70
28628;BME280;15815;46.760;19.604;2024-02-23T00:53:21;99174.78;;;12.37;46.78
28628;BME280;15815;46.760;19.604;2024-02-23T00:55:47;99182.78;;;12.38;46.81
28628;BME280;15815;46.760;19.604;2024-02-23T00:58:14;99195.97;;;12.42;46.80
28628;BME280;15815;46.760;19.604;2024-02-23T01:00:39;99195.19;;;12.41;46.73
28628;BME280;15815;46.760;19.604;2024-02-23T01:03:05;99210.84;;;12.42;47.55
28628;BME280;15815;46.760;19.604;2024-02-23T01:05:31;99216.84;;;12.44;47.56
28628;BME280;15815;46.760;19.604;2024-02-23T01:07:56;99224.94;;;12.42;47.79
28628;BME280;15815;46.760;19.604;2024-02-23T01:10:22;99210.88;;;12.26;48.76
28628;BME280;15815;46.760;19.604;2024-02-23T01:13:05;99223.56;;;12.34;49.23
28628;BME280;15815;46.760;19.604;2024-02-23T01:15:31;99218.78;;;12.31;50.65
28628;BME280;15815;46.760;19.604;2024-02-23T01:17:56;99229.59;;;12.32;50.27
28628;BME280;15815;46.760;19.604;2024-02-23T01:20:51;99227.22;;;12.31;50.60
28628;BME280;15815;46.760;19.604;2024-02-23T01:23:16;99227.44;;;12.24;51.55
28628;BME280;15815;46.760;19.604;2024-02-23T01:25:42;99231.13;;;12.21;52.78
28628;BME280;15815;46.760;19.604;2024-02-23T01:28:23;99243.19;;;12.21;52.72
28628;BME280;15815;46.760;19.604;2024-02-23T01:30:48;99251.03;;;12.14;54.92
28628;BME280;15815;46.760;19.604;2024-02-23T01:33:14;99238.72;;;11.91;56.53
28628;BME280;15815;46.760;19.604;2024-02-23T01:35:47;99221.66;;;11.82;57.82
28628;BME280;15815;46.760;19.604;2024-02-23T01:38:12;99239.94;;;11.90;58.65
28628;BME280;15815;46.760;19.604;2024-02-23T01:40:41;99230.38;;;11.88;58.80
28628;BME280;15815;46.760;19.604;2024-02-23T01:43:06;99212.28;;;11.69;59.60
28628;BME280;15815;46.760;19.604;2024-02-23T01:45:33;99217.03;;;11.72;60.73
28628;BME280;15815;46.760;19.604;2024-02-23T01:47:59;99210.69;;;11.68;61.09
28628;BME280;15815;46.760;19.604;2024-02-23T01:50:26;99202.88;;;11.59;61.88
28628;BME280;15815;46.760;19.604;2024-02-23T01:52:52;99177.53;;;11.43;62.29
28628;BME280;15815;46.760;19.604;2024-02-23T01:55:22;99187.09;;;11.45;62.76
28628;BME280;15815;46.760;19.604;2024-02-23T01:57:48;99179.97;;;11.41;62.72
28628;BME280;15815;46.760;19.604;2024-02-23T02:00:26;99182.25;;;11.46;63.18
28628;BME280;15815;46.760;19.604;2024-02-23T02:02:52;99177.53;;;11.43;63.32
28628;BME280;15815;46.760;19.604;2024-02-23T02:05:19;99179.72;;;11.35;64.34
28628;BME280;15815;46.760;19.604;2024-02-23T02:07:47;99189.63;;;11.24;65.42
28628;BME280;15815;46.760;19.604;2024-02-23T02:10:14;99183.88;;;11.11;66.00
28628;BME280;15815;46.760;19.604;2024-02-23T02:12:40;99171.72;;;10.98;65.61
28628;BME280;15815;46.760;19.604;2024-02-23T02:15:06;99173.81;;;10.94;66.12
28628;BME280;15815;46.760;19.604;2024-02-23T02:17:31;99157.25;;;10.79;66.40
28628;BME280;15815;46.760;19.604;2024-02-23T02:19:58;99174.03;;;10.83;66.44
28628;BME280;15815;46.760;19.604;2024-02-23T02:22:25;99163.84;;;10.73;66.39
28628;BME280;15815;46.760;19.604;2024-02-23T02:24:51;99166.63;;;10.73;66.07
28628;BME280;15815;46.760;19.604;2024-02-23T02:27:16;99149.63;;;10.60;66.81
28628;BME280;15815;46.760;19.604;2024-02-23T02:29:42;99170.75;;;10.68;66.92
28628;BME280;15815;46.760;19.604;2024-02-23T02:32:17;99166.34;;;10.67;67.26
28628;BME280;15815;46.760;19.604;2024-02-23T02:34:42;99154.72;;;10.65;66.34
28628;BME280;15815;46.760;19.604;2024-02-23T02:37:09;99141.59;;;10.42;67.34
28628;BME280;15815;46.760;19.604;2024-02-23T02:39:34;99163.47;;;10.51;67.19
28628;BME280;15815;46.760;19.604;2024-02-23T02:42:00;99164.19;;;10.55;66.64
28628;BME280;15815;46.760;19.604;2024-02-23T02:44:28;99160.06;;;10.60;67.03
28628;BME280;15815;46.760;19.604;2024-02-23T02:46:54;99165.78;;;10.56;66.90
28628;BME280;15815;46.760;19.604;2024-02-23T02:49:24;99158.28;;;10.49;67.11
28628;BME280;15815;46.760;19.604;2024-02-23T02:51:50;99164.69;;;10.50;67.44
28628;BME280;15815;46.760;19.604;2024-02-23T02:54:15;99158.72;;;10.48;67.73
28628;BME280;15815;46.760;19.604;2024-02-23T02:56:53;99161.09;;;10.49;67.56
28628;BME280;15815;46.760;19.604;2024-02-23T02:59:19;99168.38;;;10.47;67.69
28628;BME280;15815;46.760;19.604;2024-02-23T03:01:44;99162.81;;;10.43;67.67
28628;BME280;15815;46.760;19.604;2024-02-23T03:04:10;99158.78;;;10.44;67.12
28628;BME280;15815;46.760;19.604;2024-02-23T03:06:35;99162.81;;;10.43;67.28
28628;BME280;15815;46.760;19.604;2024-02-23T03:09:01;99172.41;;;10.46;67.14
28628;BME280;15815;46.760;19.604;2024-02-23T03:11:26;99171.25;;;10.43;67.35
28628;BME280;15815;46.760;19.604;2024-02-23T03:13:52;99160.56;;;10.35;67.17
28628;BME280;15815;46.760;19.604;2024-02-23T03:16:20;99157.47;;;10.29;68.03
28628;BME280;15815;46.760;19.604;2024-02-23T03:18:45;99158.97;;;10.34;68.49
28628;BME280;15815;46.760;19.604;2024-02-23T03:21:11;99162.59;;;10.34;68.47
28628;BME280;15815;46.760;19.604;2024-02-23T03:23:36;99165.41;;;10.34;69.39
28628;BME280;15815;46.760;19.604;2024-02-23T03:26:02;99158.25;;;10.30;68.75
28628;BME280;15815;46.760;19.604;2024-02-23T03:28:28;99175.03;;;10.33;69.68
28628;BME280;15815;46.760;19.604;2024-02-23T03:33:57;99163.81;;;10.33;69.52
28628;BME280;15815;46.760;19.604;2024-02-23T03:36:23;99173.47;;;10.32;70.50
28628;BME280;15815;46.760;19.604;2024-02-23T03:38:53;99168.84;;;10.22;71.22
28628;BME280;15815;46.760;19.604;2024-02-23T03:41:19;99174.91;;;10.20;71.44
28628;BME280;15815;46.760;19.604;2024-02-23T03:43:44;99178.91;;;10.19;71.59
28628;BME280;15815;46.760;19.604;2024-02-23T03:46:10;99177.78;;;10.13;71.79
28628;BME280;15815;46.760;19.604;2024-02-23T03:48:35;99186.91;;;10.21;72.06
28628;BME280;15815;46.760;19.604;2024-02-23T03:51:12;99183.78;;;10.15;73.21
28628;BME280;15815;46.760;19.604;2024-02-23T03:53:38;99193.44;;;10.14;72.65
28628;BME280;15815;46.760;19.604;2024-02-23T03:56:04;99194.28;;;10.11;73.72
28628;BME280;15815;46.760;19.604;2024-02-23T03:58:29;99209.41;;;10.17;73.54
28628;BME280;15815;46.760;19.604;2024-02-23T04:00:55;99199.88;;;10.11;75.13
28628;BME280;15815;46.760;19.604;2024-02-23T04:03:20;99204.34;;;10.09;74.86
28628;BME280;15815;46.760;19.604;2024-02-23T04:05:46;99203.47;;;10.12;75.19
28628;BME280;15815;46.760;19.604;2024-02-23T04:08:12;99206.34;;;10.08;75.25
28628;BME280;15815;46.760;19.604;2024-02-23T04:10:47;99207.16;;;10.09;76.75
28628;BME280;15815;46.760;19.604;2024-02-23T04:13:12;99203.13;;;10.10;75.95
28628;BME280;15815;46.760;19.604;2024-02-23T04:15:38;99196.28;;;10.11;76.92
28628;BME280;15815;46.760;19.604;2024-02-23T04:18:16;99208.72;;;10.10;77.59
28628;BME280;15815;46.760;19.604;2024-02-23T04:20:42;99203.56;;;10.08;77.91
28628;BME280;15815;46.760;19.604;2024-02-23T04:23:07;99195.69;;;10.00;78.97
28628;BME280;15815;46.760;19.604;2024-02-23T04:25:38;99200.50;;;9.99;79.61
28628;BME280;15815;46.760;19.604;2024-02-23T04:28:03;99188.00;;;10.04;80.37
28628;BME280;15815;46.760;19.604;2024-02-23T04:30:36;99193.31;;;9.98;81.74
28628;BME280;15815;46.760;19.604;2024-02-23T04:33:01;99193.38;;;9.95;81.46
28628;BME280;15815;46.760;19.604;2024-02-23T04:35:27;99174.59;;;9.91;82.68
28628;BME280;15815;46.760;19.604;2024-02-23T04:37:52;99171.09;;;9.84;83.81
28628;BME280;15815;46.760;19.604;2024-02-23T04:40:18;99175.13;;;9.83;84.10
28628;BME280;15815;46.760;19.604;2024-02-23T04:42:44;99183.59;;;9.79;84.21
28628;BME280;15815;46.760;19.604;2024-02-23T04:45:13;99173.97;;;9.80;84.13
28628;BME280;15815;46.760;19.604;2024-02-23T04:47:39;99157.81;;;9.65;84.81
28628;BME280;15815;46.760;19.604;2024-02-23T04:50:05;99172.81;;;9.78;84.69
28628;BME280;15815;46.760;19.604;2024-02-23T04:52:32;99172.94;;;9.71;85.13
28628;BME280;15815;46.760;19.604;2024-02-23T04:54:57;99170.56;;;9.69;85.02
28628;BME280;15815;46.760;19.604;2024-02-23T04:57:23;99157.03;;;9.64;85.07
28628;BME280;15815;46.760;19.604;2024-02-23T04:59:49;99163.41;;;9.65;85.88
28628;BME280;15815;46.760;19.604;2024-02-23T05:02:15;99161.84;;;9.64;85.97
28628;BME280;15815;46.760;19.604;2024-02-23T05:04:41;99146.03;;;9.50;86.16
28628;BME280;15815;46.760;19.604;2024-02-23T05:07:09;99169.81;;;9.65;86.40
28628;BME280;15815;46.760;19.604;2024-02-23T05:09:34;99179.47;;;9.64;86.63
28628;BME280;15815;46.760;19.604;2024-02-23T05:12:00;99162.31;;;9.58;86.83
28628;BME280;15815;46.760;19.604;2024-02-23T05:14:26;99162.06;;;9.49;87.42
28628;BME280;15815;46.760;19.604;2024-02-23T05:16:52;99181.09;;;9.62;87.13
28628;BME280;15815;46.760;19.604;2024-02-23T05:19:17;99165.59;;;9.53;87.59
28628;BME280;15815;46.760;19.604;2024-02-23T05:21:43;99185.97;;;9.57;87.68
28628;BME280;15815;46.760;19.604;2024-02-23T05:24:10;99184.38;;;9.56;88.34
28628;BME280;15815;46.760;19.604;2024-02-23T05:26:37;99184.38;;;9.56;88.71
28628;BME280;15815;46.760;19.604;2024-02-23T05:29:03;99182.06;;;9.51;88.59
28628;BME280;15815;46.760;19.604;2024-02-23T05:31:52;99178.88;;;9.49;89.27
28628;BME280;15815;46.760;19.604;2024-02-23T05:34:18;99167.13;;;9.35;89.49
28628;BME280;15815;46.760;19.604;2024-02-23T05:36:45;99187.34;;;9.46;89.94
28628;BME280;15815;46.760;19.604;2024-02-23T05:39:10;99182.66;;;9.39;90.15
28628;BME280;15815;46.760;19.604;2024-02-23T05:41:36;99209.75;;;9.49;89.51
28628;BME280;15815;46.760;19.604;2024-02-23T05:44:06;99211.00;;;9.45;89.59
28628;BME280;15815;46.760;19.604;2024-02-23T05:46:32;99206.25;;;9.42;89.82
28628;BME280;15815;46.760;19.604;2024-02-23T05:49:02;99202.59;;;9.45;90.50
28628;BME280;15815;46.760;19.604;2024-02-23T05:51:29;99203.09;;;9.40;90.17
28628;BME280;15815;46.760;19.604;2024-02-23T05:53:55;99207.91;;;9.39;90.98
28628;BME280;15815;46.760;19.604;2024-02-23T05:56:20;99218.25;;;9.42;90.26
28628;BME280;15815;46.760;19.604;2024-02-23T05:58:57;99221.91;;;9.39;90.47
28628;BME280;15815;46.760;19.604;2024-02-23T06:01:22;99227.53;;;9.39;90.16
28628;BME280;15815;46.760;19.604;2024-02-23T06:03:50;99217.16;;;9.36;89.61
28628;BME280;15815;46.760;19.604;2024-02-23T06:06:15;99223.88;;;9.42;90.27
28628;BME280;15815;46.760;19.604;2024-02-23T06:08:42;99224.72;;;9.39;89.38
28628;BME280;15815;46.760;19.604;2024-02-23T06:11:12;99204.41;;;9.32;89.91
28628;BME280;15815;46.760;19.604;2024-02-23T06:13:37;99205.59;;;9.30;89.07
28628;BME280;15815;46.760;19.604;2024-02-23T06:16:11;99219.47;;;9.41;88.97
28628;BME280;15815;46.760;19.604;2024-02-23T06:18:37;99225.47;;;9.43;89.67
28628;BME280;15815;46.760;19.604;2024-02-23T06:21:14;99219.47;;;9.41;89.25
28628;BME280;15815;46.760;19.604;2024-02-23T06:23:39;99218.31;;;9.39;89.41
28628;BME280;15815;46.760;19.604;2024-02-23T06:26:05;99233.81;;;9.47;89.78
28628;BME280;15815;46.760;19.604;2024-02-23T06:28:31;99239.78;;;9.49;90.06
28628;BME280;15815;46.760;19.604;2024-02-23T06:30:56;99242.53;;;9.52;90.30
28628;BME280;15815;46.760;19.604;2024-02-23T06:33:27;99236.19;;;9.48;90.42
28628;BME280;15815;46.760;19.604;2024-02-23T06:35:52;99233.03;;;9.46;90.93
28628;BME280;15815;46.760;19.604;2024-02-23T06:38:37;99240.47;;;9.56;90.62
28628;BME280;15815;46.760;19.604;2024-02-23T06:41:03;99247.31;;;9.55;91.41
28628;BME280;15815;46.760;19.604;2024-02-23T06:43:28;99250.09;;;9.55;91.62
28628;BME280;15815;46.760;19.604;2024-02-23T06:45:54;99224.66;;;9.43;91.55
28628;BME280;15815;46.760;19.604;2024-02-23T06:48:19;99253.34;;;9.54;91.19
28628;BME280;15815;46.760;19.604;2024-02-23T06:50:45;99256.84;;;9.62;91.25
28628;BME280;15815;46.760;19.604;2024-02-23T06:53:11;99224.59;;;9.46;91.20
28628;BME280;15815;46.760;19.604;2024-02-23T06:55:38;99259.91;;;9.71;91.38
28628;BME280;15815;46.760;19.604;2024-02-23T06:58:04;99242.81;;;9.62;91.39
28628;BME280;15815;46.760;19.604;2024-02-23T07:00:29;99245.16;;;9.67;91.52
28628;BME280;15815;46.760;19.604;2024-02-23T07:02:56;99237.94;;;9.66;91.87
28628;BME280;15815;46.760;19.604;2024-02-23T07:05:21;99267.28;;;9.88;92.29
28628;BME280;15815;46.760;19.604;2024-02-23T07:07:47;99259.44;;;9.76;91.90
28628;BME280;15815;46.760;19.604;2024-02-23T07:10:16;99258.63;;;9.75;92.79
28628;BME280;15815;46.760;19.604;2024-02-23T07:12:41;99269.91;;;9.72;92.32
28628;BME280;15815;46.760;19.604;2024-02-23T07:15:07;99272.97;;;9.81;91.93
28628;BME280;15815;46.760;19.604;2024-02-23T07:17:36;99245.50;;;9.69;91.92
28628;BME280;15815;46.760;19.604;2024-02-23T07:20:02;99263.34;;;9.82;92.37
28628;BME280;15815;46.760;19.604;2024-02-23T07:22:27;99272.75;;;9.95;92.16
28628;BME280;15815;46.760;19.604;2024-02-23T07:24:53;99280.69;;;10.00;91.72
28628;BME280;15815;46.760;19.604;2024-02-23T07:27:18;99264.47;;;9.88;92.14
28628;BME280;15815;46.760;19.604;2024-02-23T07:29:44;99280.69;;;10.00;92.93
28628;BME280;15815;46.760;19.604;2024-02-23T07:32:13;99276.72;;;9.98;91.97
28628;BME280;15815;46.760;19.604;2024-02-23T07:34:39;99266.41;;;9.91;92.09
28628;BME280;15815;46.760;19.604;2024-02-23T07:37:05;99276.72;;;9.98;91.67
28628;BME280;15815;46.760;19.604;2024-02-23T07:39:31;99267.94;;;9.96;92.05
28628;BME280;15815;46.760;19.604;2024-02-23T07:41:56;99283.38;;;10.07;92.39
28628;BME280;15815;46.760;19.604;2024-02-23T07:44:22;99288.09;;;10.14;92.21
28628;BME280;15815;46.760;19.604;2024-02-23T07:46:47;99291.28;;;10.16;92.11
28628;BME280;15815;46.760;19.604;2024-02-23T07:49:13;99276.31;;;9.99;91.37
28628;BME280;15815;46.760;19.604;2024-02-23T07:51:38;99279.59;;;9.94;92.91
28628;BME280;15815;46.760;19.604;2024-02-23T07:54:04;99292.59;;;10.08;91.73
28628;BME280;15815;46.760;19.604;2024-02-23T07:56:34;99283.13;;;9.98;93.21
28628;BME280;15815;46.760;19.604;2024-02-23T07:59:03;99267.94;;;9.96;92.43
28628;BME280;15815;46.760;19.604;2024-02-23T08:01:29;99279.47;;;10.01;92.99
28628;BME280;15815;46.760;19.604;2024-02-23T08:03:57;99279.03;;;10.03;92.05
28628;BME280;15815;46.760;19.604;2024-02-23T08:06:23;99277.03;;;10.03;91.27
28628;BME280;15815;46.760;19.604;2024-02-23T08:08:48;99275.88;;;10.01;92.56
28628;BME280;15815;46.760;19.604;2024-02-23T08:11:14;99275.03;;;10.04;91.96
28628;BME280;15815;46.760;19.604;2024-02-23T08:13:39;99269.72;;;10.09;90.85
28628;BME280;15815;46.760;19.604;2024-02-23T08:16:05;99274.53;;;10.09;90.88
28628;BME280;15815;46.760;19.604;2024-02-23T08:18:32;99289.63;;;10.18;90.04
28628;BME280;15815;46.760;19.604;2024-02-23T08:20:58;99284.44;;;10.17;89.99
28628;BME280;15815;46.760;19.604;2024-02-23T08:23:24;99282.78;;;10.19;90.04
28628;BME280;15815;46.760;19.604;2024-02-23T08:25:50;99271.09;;;10.25;90.04
28628;BME280;15815;46.760;19.604;2024-02-23T08:28:37;99281.78;;;10.33;89.71
28628;BME280;15815;46.760;19.604;2024-02-23T08:31:03;99260.31;;;10.19;90.03
28628;BME280;15815;46.760;19.604;2024-02-23T08:33:28;99270.59;;;10.30;89.29
28628;BME280;15815;46.760;19.604;2024-02-23T08:35:55;99262.47;;;10.35;88.60
28628;BME280;15815;46.760;19.604;2024-02-23T08:38:20;99273.59;;;10.42;87.93
28628;BME280;15815;46.760;19.604;2024-02-23T08:40:46;99278.34;;;10.45;87.55
28628;BME280;15815;46.760;19.604;2024-02-23T08:43:11;99267.91;;;10.46;87.76
28628;BME280;15815;46.760;19.604;2024-02-23T08:45:37;99264.75;;;10.44;87.23
28628;BME280;15815;46.760;19.604;2024-02-23T08:48:03;99266.34;;;10.45;86.56
28628;BME280;15815;46.760;19.604;2024-02-23T08:50:29;99261.44;;;10.49;85.68
28628;BME280;15815;46.760;19.604;2024-02-23T08:52:55;99266.13;;;10.56;85.61
28628;BME280;15815;46.760;19.604;2024-02-23T08:55:20;99265.13;;;10.66;84.58
28628;BME280;15815;46.760;19.604;2024-02-23T08:57:46;99277.91;;;10.70;84.80
28628;BME280;15815;46.760;19.604;2024-02-23T09:00:12;99273.00;;;10.74;84.05
28628;BME280;15815;46.760;19.604;2024-02-23T09:02:49;99253.88;;;10.66;84.06
28628;BME280;15815;46.760;19.604;2024-02-23T09:05:14;99268.81;;;10.82;84.43
28628;BME280;15815;46.760;19.604;2024-02-23T09:07:40;99261.47;;;10.89;84.04
28628;BME280;15815;46.760;19.604;2024-02-23T09:10:25;99279.72;;;11.00;83.47
28628;BME280;15815;46.760;19.604;2024-02-23T09:12:50;99266.97;;;10.96;83.43
28628;BME280;15815;46.760;19.604;2024-02-23T09:15:34;99276.91;;;11.00;82.99
28628;BME280;15815;46.760;19.604;2024-02-23T09:18:00;99269.19;;;11.04;82.44
28628;BME280;15815;46.760;19.604;2024-02-23T09:20:26;99256.34;;;11.03;82.22
28628;BME280;15815;46.760;19.604;2024-02-23T09:22:51;99259.09;;;11.07;82.32
28628;BME280;15815;46.760;19.604;2024-02-23T09:25:18;99265.63;;;11.20;82.09
28628;BME280;15815;46.760;19.604;2024-02-23T09:27:43;99263.91;;;11.26;82.25
28628;BME280;15815;46.760;19.604;2024-02-23T09:30:11;99264.81;;;11.39;81.18
28628;BME280;15815;46.760;19.604;2024-02-23T09:32:41;99261.56;;;11.41;80.90
28628;BME280;15815;46.760;19.604;2024-02-23T09:35:07;99274.97;;;11.53;81.17
28628;BME280;15815;46.760;19.604;2024-02-23T09:37:34;99271.13;;;11.63;80.47
28628;BME280;15815;46.760;19.604;2024-02-23T09:40:00;99261.88;;;11.63;79.58
28628;BME280;15815;46.760;19.604;2024-02-23T09:42:28;99266.69;;;11.82;79.62
28628;BME280;15815;46.760;19.604;2024-02-23T09:44:58;99258.16;;;11.86;79.59
28628;BME280;15815;46.760;19.604;2024-02-23T09:47:26;99270.84;;;11.94;78.99
28628;BME280;15815;46.760;19.604;2024-02-23T09:49:52;99279.19;;;12.14;79.06
28628;BME280;15815;46.760;19.604;2024-02-23T09:52:24;99269.16;;;12.13;77.26
28628;BME280;15815;46.760;19.604;2024-02-23T09:54:49;99267.06;;;12.33;78.02
28628;BME280;15815;46.760;19.604;2024-02-23T09:57:16;99253.75;;;12.33;76.82
28628;BME280;15815;46.760;19.604;2024-02-23T09:59:41;99269.94;;;12.46;76.28
28628;BME280;15815;46.760;19.604;2024-02-23T10:02:08;99268.06;;;12.55;75.76
28628;BME280;15815;46.760;19.604;2024-02-23T10:04:42;99259.09;;;12.60;74.07
28628;BME280;15815;46.760;19.604;2024-02-23T10:07:09;99258.88;;;12.67;74.39
28628;BME280;15815;46.760;19.604;2024-02-23T10:09:35;99270.09;;;12.84;74.87
28628;BME280;15815;46.760;19.604;2024-02-23T10:12:02;99267.56;;;12.89;74.22
28628;BME280;15815;46.760;19.604;2024-02-23T10:14:31;99264.06;;;12.98;74.07
28628;BME280;15815;46.760;19.604;2024-02-23T10:16:57;99258.88;;;12.96;72.15
28628;BME280;15815;46.760;19.604;2024-02-23T10:19:22;99265.66;;;12.99;72.73
28628;BME280;15815;46.760;19.604;2024-02-23T10:21:56;99272.44;;;13.14;71.81
28628;BME280;15815;46.760;19.604;2024-02-23T10:24:23;99260.75;;;13.16;71.26
28628;BME280;15815;46.760;19.604;2024-02-23T10:26:48;99268.84;;;13.43;70.53
28628;BME280;15815;46.760;19.604;2024-02-23T10:29:15;99275.16;;;13.47;69.82
28628;BME280;15815;46.760;19.604;2024-02-23T10:31:41;99266.94;;;13.52;69.17
28628;BME280;15815;46.760;19.604;2024-02-23T10:34:09;99287.59;;;13.62;68.16
28628;BME280;15815;46.760;19.604;2024-02-23T10:36:44;99274.72;;;13.61;68.82
28628;BME280;15815;46.760;19.604;2024-02-23T10:39:10;99290.56;;;13.71;66.79
28628;BME280;15815;46.760;19.604;2024-02-23T10:41:37;99275.06;;;13.63;66.68
28628;BME280;15815;46.760;19.604;2024-02-23T10:44:05;99291.69;;;13.74;65.19
28628;BME280;15815;46.760;19.604;2024-02-23T10:46:37;99275.75;;;13.80;66.45
28628;BME280;15815;46.760;19.604;2024-02-23T10:49:02;99276.66;;;13.89;65.07
28628;BME280;15815;46.760;19.604;2024-02-23T10:54:22;99271.34;;;13.91;65.17
28628;BME280;15815;46.760;19.604;2024-02-23T10:56:50;99259.47;;;13.84;65.55
28628;BME280;15815;46.760;19.604;2024-02-23T10:59:19;99258.03;;;13.79;65.03
28628;BME280;15815;46.760;19.604;2024-02-23T11:01:49;99269.63;;;13.69;65.70
28628;BME280;15815;46.760;19.604;2024-02-23T11:04:19;99270.66;;;13.62;65.16
28628;BME280;15815;46.760;19.604;2024-02-23T11:07:12;99267.72;;;13.66;65.80
28628;BME280;15815;46.760;19.604;2024-02-23T11:09:38;99255.28;;;13.63;65.77
28628;BME280;15815;46.760;19.604;2024-02-23T11:12:04;99264.22;;;13.61;64.60
28628;BME280;15815;46.760;19.604;2024-02-23T11:14:35;99263.13;;;13.72;65.07
28628;BME280;15815;46.760;19.604;2024-02-23T11:17:02;99257.56;;;13.68;65.43
28628;BME280;15815;46.760;19.604;2024-02-23T11:19:38;99274.72;;;13.86;65.88
28628;BME280;15815;46.760;19.604;2024-02-23T11:22:27;99276.31;;;13.75;65.84
28628;BME280;15815;46.760;19.604;2024-02-23T11:25:06;99263.75;;;13.63;65.79
28628;BME280;15815;46.760;19.604;2024-02-23T11:27:34;99257.09;;;13.57;64.71
28628;BME280;15815;46.760;19.604;2024-02-23T11:30:04;99274.72;;;13.61;64.93
28628;BME280;15815;46.760;19.604;2024-02-23T11:32:38;99265.13;;;13.58;66.25
28628;BME280;15815;46.760;19.604;2024-02-23T11:35:06;99245.47;;;13.42;66.61
28628;BME280;15815;46.760;19.604;2024-02-23T11:37:32;99257.75;;;13.36;67.24
28628;BME280;15815;46.760;19.604;2024-02-23T11:40:05;99274.38;;;13.46;67.56
28628;BME280;15815;46.760;19.604;2024-02-23T11:42:31;99271.41;;;13.37;67.88
28628;BME280;15815;46.760;19.604;2024-02-23T11:44:57;99234.50;;;13.19;67.30
28628;BME280;15815;46.760;19.604;2024-02-23T11:47:23;99223.66;;;13.17;68.16
28628;BME280;15815;46.760;19.604;2024-02-23T11:49:48;99247.25;;;13.36;68.69
28628;BME280;15815;46.760;19.604;2024-02-23T11:52:14;99247.72;;;13.35;68.64
28628;BME280;15815;46.760;19.604;2024-02-23T11:54:39;99235.50;;;13.25;67.76
28628;BME280;15815;46.760;19.604;2024-02-23T11:57:05;99246.34;;;13.39;67.19
28628;BME280;15815;46.760;19.604;2024-02-23T11:59:32;99237.31;;;13.32;67.52
28628;BME280;15815;46.760;19.604;2024-02-23T12:01:57;99252.25;;;13.45;67.33
28628;BME280;15815;46.760;19.604;2024-02-23T12:04:23;99255.28;;;13.38;66.29
28628;BME280;15815;46.760;19.604;2024-02-23T12:06:49;99230.66;;;13.38;67.39
28628;BME280;15815;46.760;19.604;2024-02-23T12:09:14;99232.47;;;13.32;67.10
28628;BME280;15815;46.760;19.604;2024-02-23T12:11:40;99241.94;;;13.25;65.83
28628;BME280;15815;46.760;19.604;2024-02-23T12:14:06;99234.50;;;13.19;66.31
28628;BME280;15815;46.760;19.604;2024-02-23T12:16:47;99246.78;;;13.25;66.31
28628;BME280;15815;46.760;19.604;2024-02-23T12:19:12;99254.31;;;13.15;66.00
28628;BME280;15815;46.760;19.604;2024-02-23T12:21:38;99240.06;;;13.06;66.06
28628;BME280;15815;46.760;19.604;2024-02-23T12:24:04;99225.72;;;13.00;66.74
28628;BME280;15815;46.760;19.604;2024-02-23T12:26:30;99246.56;;;13.19;66.46
28628;BME280;15815;46.760;19.604;2024-02-23T12:29:00;99225.94;;;13.06;67.30
28628;BME280;15815;46.760;19.604;2024-02-23T12:31:41;99241.06;;;13.12;66.85
28628;BME280;15815;46.760;19.604;2024-02-23T12:34:11;99235.78;;;13.14;66.58
28628;BME280;15815;46.760;19.604;2024-02-23T12:36:39;99239.91;;;13.26;66.67
28628;BME280;15815;46.760;19.604;2024-02-23T12:39:05;99226.47;;;13.17;66.37
28628;BME280;15815;46.760;19.604;2024-02-23T12:41:38;99228.78;;;13.06;66.91
28628;BME280;15815;46.760;19.604;2024-02-23T12:44:07;99239.41;;;13.15;67.10
28628;BME280;15815;46.760;19.604;2024-02-23T12:46:40;99237.47;;;13.12;67.46
28628;BME280;15815;46.760;19.604;2024-02-23T12:49:06;99220.41;;;13.03;67.62
28628;BME280;15815;46.760;19.604;2024-02-23T12:51:31;99223.69;;;13.14;68.25
28628;BME280;15815;46.760;19.604;2024-02-23T12:53:57;99221.66;;;13.14;67.25
28628;BME280;15815;46.760;19.604;2024-02-23T12:56:25;99229.47;;;13.10;68.25
28628;BME280;15815;46.760;19.604;2024-02-23T12:58:51;99230.69;;;13.09;67.30
28628;BME280;15815;46.760;19.604;2024-02-23T13:01:17;99210.47;;;12.98;68.17